createdAt,value
2019-04-01T00:00:40.897Z,5.10
2019-04-01T00:03:12.735Z,5.10
2019-04-01T00:05:43.645Z,5.10
2019-04-01T00:08:14.940Z,5.10
2019-04-01T00:10:46.251Z,5.00
2019-04-01T00:13:17.787Z,5.00
2019-04-01T00:15:48.835Z,4.90
2019-04-01T00:18:19.874Z,4.80
2019-04-01T00:20:52.773Z,4.80
2019-04-01T00:23:23.609Z,4.70
2019-04-01T00:25:54.679Z,4.70
2019-04-01T00:28:26.861Z,4.70
2019-04-01T00:30:58.141Z,4.60
2019-04-01T00:33:48.674Z,4.60
2019-04-01T00:36:18.053Z,4.60
2019-04-01T00:38:47.973Z,4.50
2019-04-01T00:41:20.479Z,4.50
2019-04-01T00:43:56.201Z,4.50
2019-04-01T00:46:26.429Z,4.40
2019-04-01T00:48:56.839Z,4.30
2019-04-01T00:51:29.173Z,4.30
2019-04-01T00:54:00.344Z,4.30
2019-04-01T00:56:31.644Z,4.30
2019-04-01T00:59:02.619Z,4.40
2019-04-01T01:01:37.179Z,4.30
2019-04-01T01:04:08.050Z,4.40
2019-04-01T01:06:40.281Z,4.40
2019-04-01T01:09:13.458Z,4.40
2019-04-01T01:11:44.471Z,4.40
2019-04-01T01:14:14.683Z,4.40
2019-04-01T01:16:45.808Z,4.30
2019-04-01T01:19:18.487Z,4.30
2019-04-01T01:21:48.414Z,4.30
2019-04-01T01:24:20.633Z,4.30
2019-04-01T01:26:50.791Z,4.30
2019-04-01T01:29:24.037Z,4.20
2019-04-01T01:31:54.013Z,4.20
2019-04-01T01:34:26.397Z,4.20
2019-04-01T01:36:57.929Z,4.10
2019-04-01T01:39:27.753Z,4.10
2019-04-01T01:41:58.759Z,4.20
2019-04-01T01:44:29.581Z,4.20
2019-04-01T01:47:00.444Z,4.20
2019-04-01T01:49:33.832Z,4.10
2019-04-01T01:52:04.977Z,4.10
2019-04-01T01:54:35.887Z,4.20
2019-04-01T01:57:10.811Z,4.20
2019-04-01T01:59:43.223Z,4.20
2019-04-01T02:02:14.117Z,4.20
2019-04-01T02:04:45.296Z,4.10
2019-04-01T02:07:16.694Z,4.10
2019-04-01T02:09:48.018Z,4.10
2019-04-01T02:12:19.516Z,4.10
2019-04-01T02:14:49.387Z,4.00
2019-04-01T02:17:21.712Z,4.00
2019-04-01T02:19:54.091Z,4.00
2019-04-01T02:22:25.565Z,4.00
2019-04-01T02:24:55.527Z,3.90
2019-04-01T02:27:26.855Z,3.90
2019-04-01T02:29:59.161Z,3.80
2019-04-01T02:32:30.298Z,3.70
2019-04-01T02:35:00.495Z,3.60
2019-04-01T02:37:31.671Z,3.60
2019-04-01T02:40:02.780Z,3.50
2019-04-01T02:42:35.300Z,3.40
2019-04-01T02:45:07.127Z,3.40
2019-04-01T02:47:39.688Z,3.40
2019-04-01T02:50:12.238Z,3.30
2019-04-01T02:52:45.271Z,3.30
2019-04-01T02:55:16.258Z,3.30
2019-04-01T02:57:47.253Z,3.30
2019-04-01T03:00:18.417Z,3.40
2019-04-01T03:02:48.301Z,3.40
2019-04-01T03:05:18.238Z,3.30
2019-04-01T03:07:48.061Z,3.40
2019-04-01T03:10:20.197Z,3.40
2019-04-01T03:12:51.127Z,3.40
2019-04-01T03:15:22.672Z,3.40
2019-04-01T03:17:53.920Z,3.40
2019-04-01T03:20:23.984Z,3.40
2019-04-01T03:22:54.870Z,3.40
2019-04-01T03:25:25.967Z,3.40
2019-04-01T03:28:18.740Z,3.40
2019-04-01T03:30:54.773Z,3.30
2019-04-01T03:33:25.910Z,3.30
2019-04-01T03:35:57.956Z,3.30
2019-04-01T03:38:28.903Z,3.20
2019-04-01T03:40:59.393Z,3.10
2019-04-01T03:43:30.239Z,3.00
2019-04-01T03:46:01.899Z,3.00
2019-04-01T03:48:34.313Z,2.90
2019-04-01T03:51:06.203Z,2.80
2019-04-01T03:53:37.086Z,2.70
2019-04-01T03:56:09.523Z,2.60
2019-04-01T03:58:40.449Z,2.50
2019-04-01T04:01:12.045Z,2.50
2019-04-01T04:03:44.355Z,2.40
2019-04-01T04:06:15.174Z,2.30
2019-04-01T04:08:44.992Z,2.30
2019-04-01T04:11:15.911Z,2.20
2019-04-01T04:13:45.827Z,2.10
2019-04-01T04:16:15.913Z,2.10
2019-04-01T04:18:47.312Z,2.00
2019-04-01T04:21:17.780Z,2.00
2019-04-01T04:23:49.004Z,1.90
2019-04-01T04:26:20.234Z,1.90
2019-04-01T04:28:51.011Z,1.80
2019-04-01T04:31:23.468Z,1.80
2019-04-01T04:33:53.378Z,1.80
2019-04-01T04:36:24.174Z,1.80
2019-04-01T04:38:54.852Z,1.80
2019-04-01T04:41:25.592Z,1.70
2019-04-01T04:43:56.493Z,1.70
2019-04-01T04:46:30.478Z,1.70
2019-04-01T04:49:01.406Z,1.70
2019-04-01T04:51:31.194Z,1.60
2019-04-01T04:54:01.139Z,1.60
2019-04-01T04:56:33.659Z,1.60
2019-04-01T04:59:05.918Z,1.70
2019-04-01T05:01:38.314Z,1.70
2019-04-01T05:04:10.664Z,1.70
2019-04-01T05:06:41.690Z,1.70
2019-04-01T05:09:14.270Z,1.70
2019-04-01T05:11:45.931Z,1.80
2019-04-01T05:14:16.263Z,1.80
2019-04-01T05:16:46.397Z,1.80
2019-04-01T05:19:18.185Z,1.90
2019-04-01T05:21:48.890Z,1.90
2019-04-01T05:24:21.354Z,2.00
2019-04-01T05:26:56.337Z,2.10
2019-04-01T05:29:30.416Z,2.10
2019-04-01T05:32:02.667Z,2.20
2019-04-01T05:34:36.273Z,2.20
2019-04-01T05:37:09.058Z,2.30
2019-04-01T05:39:40.881Z,2.40
2019-04-01T05:42:12.512Z,2.50
2019-04-01T05:44:47.111Z,2.60
2019-04-01T05:47:16.429Z,2.70
2019-04-01T05:49:46.483Z,2.90
2019-04-01T05:52:18.051Z,3.10
2019-04-01T05:54:48.177Z,3.20
2019-04-01T05:57:19.677Z,3.20
2019-04-01T05:59:49.809Z,3.40
2019-04-01T06:02:21.048Z,3.50
2019-04-01T06:04:52.726Z,3.60
2019-04-01T06:07:23.936Z,3.70
2019-04-01T06:09:56.227Z,3.80
2019-04-01T06:12:28.537Z,3.80
2019-04-01T06:15:02.949Z,3.90
2019-04-01T06:17:35.678Z,4.10
2019-04-01T06:20:08.391Z,4.20
2019-04-01T06:22:40.080Z,4.30
2019-04-01T06:25:13.116Z,4.60
2019-04-01T06:27:43.106Z,4.80
2019-04-01T06:30:15.977Z,4.90
2019-04-01T06:32:45.990Z,5.00
2019-04-01T06:35:17.199Z,5.20
2019-04-01T06:37:49.900Z,5.40
2019-04-01T06:40:23.221Z,5.50
2019-04-01T06:42:55.455Z,5.80
2019-04-01T06:45:28.209Z,5.80
2019-04-01T06:47:57.631Z,5.90
2019-04-01T06:50:27.792Z,5.80
2019-04-01T06:52:59.877Z,6.10
2019-04-01T06:55:30.028Z,6.30
2019-04-01T06:58:01.050Z,6.50
2019-04-01T07:00:31.809Z,6.50
2019-04-01T07:03:05.269Z,6.60
2019-04-01T07:05:37.802Z,6.80
2019-04-01T07:08:11.591Z,6.90
2019-04-01T07:10:44.537Z,7.10
2019-04-01T07:13:17.224Z,7.40
2019-04-01T07:15:48.909Z,7.60
2019-04-01T07:18:19.135Z,7.60
2019-04-01T07:20:50.880Z,7.90
2019-04-01T07:23:21.936Z,7.70
2019-04-01T07:25:54.540Z,7.80
2019-04-01T07:28:25.768Z,7.70
2019-04-01T07:30:55.786Z,7.90
2019-04-01T07:33:28.959Z,8.20
2019-04-01T07:36:01.093Z,8.20
2019-04-01T07:38:32.262Z,8.40
2019-04-01T07:41:04.932Z,8.50
2019-04-01T07:43:48.223Z,8.70
2019-04-01T07:46:18.456Z,8.90
2019-04-01T07:49:07.895Z,9.00
2019-04-01T07:51:40.320Z,9.10
2019-04-01T07:54:11.755Z,9.10
2019-04-01T07:56:42.220Z,9.30
2019-04-01T07:59:14.090Z,9.70
2019-04-01T08:01:45.675Z,10.20
2019-04-01T08:04:16.792Z,10.70
2019-04-01T08:06:51.164Z,10.80
2019-04-01T08:09:22.780Z,11.40
2019-04-01T08:11:55.492Z,11.50
2019-04-01T08:14:28.369Z,11.60
2019-04-01T08:17:00.101Z,11.70
2019-04-01T08:19:31.405Z,11.80
2019-04-01T08:22:09.886Z,12.20
2019-04-01T08:24:44.460Z,12.70
2019-04-01T08:27:15.910Z,12.90
2019-04-01T08:29:48.386Z,13.10
2019-04-01T08:32:19.878Z,13.60
2019-04-01T08:34:49.923Z,13.90
2019-04-01T08:37:21.471Z,14.30
2019-04-01T08:39:53.372Z,14.50
2019-04-01T08:42:26.451Z,14.90
2019-04-01T08:44:59.045Z,14.90
2019-04-01T08:47:29.094Z,14.50
2019-04-01T08:50:00.556Z,14.00
2019-04-01T08:52:33.345Z,13.90
2019-04-01T08:55:06.769Z,14.50
2019-04-01T08:57:39.577Z,14.80
2019-04-01T09:00:11.530Z,14.70
2019-04-01T09:02:44.878Z,14.80
2019-04-01T09:05:16.431Z,15.30
2019-04-01T09:07:47.307Z,15.50
2019-04-01T09:10:18.491Z,15.60
2019-04-01T09:12:52.400Z,15.70
2019-04-01T09:15:23.632Z,15.70
2019-04-01T09:17:55.040Z,14.40
2019-04-01T09:20:29.985Z,15.00
2019-04-01T09:23:04.851Z,15.40
2019-04-01T09:25:37.348Z,14.70
2019-04-01T09:28:16.645Z,15.00
2019-04-01T09:30:47.775Z,15.40
2019-04-01T09:33:17.778Z,16.30
2019-04-01T09:35:49.137Z,15.80
2019-04-01T09:38:23.706Z,16.10
2019-04-01T09:41:01.331Z,16.20
2019-04-01T09:43:34.636Z,16.60
2019-04-01T09:46:07.135Z,16.20
2019-04-01T09:48:39.716Z,15.50
2019-04-01T09:51:14.177Z,16.30
2019-04-01T09:53:45.580Z,17.30
2019-04-01T09:56:36.036Z,17.30
2019-04-01T09:59:07.154Z,17.50
2019-04-01T10:01:39.430Z,16.40
2019-04-01T10:04:10.817Z,16.80
2019-04-01T10:07:02.494Z,18.20
2019-04-01T10:09:34.294Z,18.50
2019-04-01T10:12:05.939Z,18.80
2019-04-01T10:14:37.449Z,18.70
2019-04-01T10:17:11.977Z,18.80
2019-04-01T10:19:44.371Z,19.10
2019-04-01T10:22:17.524Z,19.40
2019-04-01T10:24:50.938Z,18.50
2019-04-01T10:27:23.359Z,18.70
2019-04-01T10:29:58.734Z,18.30
2019-04-01T10:32:30.011Z,17.50
2019-04-01T10:35:01.746Z,17.50
2019-04-01T10:37:36.652Z,18.10
2019-04-01T10:40:09.671Z,18.20
2019-04-01T10:42:42.002Z,17.60
2019-04-01T10:45:14.210Z,17.30
2019-04-01T10:47:49.907Z,17.60
2019-04-01T10:50:24.706Z,18.10
2019-04-01T10:52:57.481Z,17.90
2019-04-01T10:55:28.647Z,17.90
2019-04-01T10:57:58.827Z,18.40
2019-04-01T11:00:33.702Z,19.30
2019-04-01T11:03:06.197Z,19.60
2019-04-01T11:05:36.308Z,20.00
2019-04-01T11:08:08.623Z,20.50
2019-04-01T11:10:44.063Z,20.60
2019-04-01T11:13:16.319Z,19.90
2019-04-01T11:15:48.757Z,20.50
2019-04-01T11:18:21.833Z,20.50
2019-04-01T11:20:56.809Z,20.50
2019-04-01T11:23:28.603Z,20.20
2019-04-01T11:26:04.612Z,20.40
2019-04-01T11:28:36.054Z,20.70
2019-04-01T11:31:06.601Z,20.30
2019-04-01T11:33:38.877Z,19.20
2019-04-01T11:36:09.417Z,19.60
2019-04-01T11:38:42.499Z,19.50
2019-04-01T11:41:15.053Z,19.30
2019-04-01T11:43:47.448Z,19.40
2019-04-01T11:46:18.849Z,18.90
2019-04-01T11:48:51.316Z,19.00
2019-04-01T11:51:32.696Z,20.00
2019-04-01T11:53:58.941Z,20.40
2019-04-01T11:56:32.680Z,20.30
2019-04-01T11:59:05.930Z,20.70
2019-04-01T12:01:36.847Z,21.30
2019-04-01T12:04:08.188Z,21.70
2019-04-01T12:06:39.183Z,21.90
2019-04-01T12:09:10.166Z,21.60
2019-04-01T12:11:42.997Z,21.40
2019-04-01T12:14:14.018Z,21.50
2019-04-01T12:16:46.164Z,21.30
2019-04-01T12:19:18.363Z,20.60
2019-04-01T12:21:49.540Z,20.50
2019-04-01T12:24:21.016Z,20.40
2019-04-01T12:26:52.595Z,20.30
2019-04-01T12:29:25.021Z,20.60
2019-04-01T12:31:59.513Z,21.70
2019-04-01T12:34:31.343Z,21.20
2019-04-01T12:37:03.851Z,20.30
2019-04-01T12:39:36.198Z,20.00
2019-04-01T12:42:08.073Z,20.10
2019-04-01T12:44:42.934Z,20.70
2019-04-01T12:47:17.262Z,21.30
2019-04-01T12:49:49.875Z,21.10
2019-04-01T12:52:21.008Z,21.70
2019-04-01T12:54:52.274Z,22.00
2019-04-01T12:57:23.506Z,22.60
2019-04-01T12:59:56.105Z,22.50
2019-04-01T13:02:29.427Z,21.70
2019-04-01T13:04:59.387Z,21.60
2019-04-01T13:07:32.396Z,21.20
2019-04-01T13:10:04.665Z,21.50
2019-04-01T13:12:37.022Z,21.10
2019-04-01T13:15:12.595Z,22.00
2019-04-01T13:17:45.063Z,21.90
2019-04-01T13:20:16.368Z,21.00
2019-04-01T13:22:51.603Z,20.30
2019-04-01T13:25:26.770Z,19.70
2019-04-01T13:27:57.515Z,19.60
2019-04-01T13:30:31.381Z,20.00
2019-04-01T13:33:05.884Z,20.00
2019-04-01T13:35:40.022Z,20.30
2019-04-01T13:38:14.968Z,20.70
2019-04-01T13:40:46.963Z,21.40
2019-04-01T13:43:19.667Z,22.60
2019-04-01T13:45:52.792Z,23.00
2019-04-01T13:48:23.354Z,22.00
2019-04-01T13:50:54.472Z,20.70
2019-04-01T13:53:28.567Z,20.40
2019-04-01T13:55:59.774Z,20.30
2019-04-01T13:58:32.355Z,19.00
2019-04-01T14:01:03.978Z,19.00
2019-04-01T14:03:39.129Z,19.40
2019-04-01T14:06:09.809Z,19.30
2019-04-01T14:08:40.836Z,19.90
2019-04-01T14:11:13.623Z,19.80
2019-04-01T14:13:44.825Z,19.50
2019-04-01T14:16:18.497Z,18.90
2019-04-01T14:18:50.874Z,19.30
2019-04-01T14:21:23.479Z,18.80
2019-04-01T14:23:55.823Z,18.40
2019-04-01T14:26:47.547Z,18.90
2019-04-01T14:29:17.767Z,18.60
2019-04-01T14:31:49.629Z,18.30
2019-04-01T14:34:23.442Z,18.10
2019-04-01T14:36:53.973Z,17.60
2019-04-01T14:39:26.604Z,17.20
2019-04-01T14:41:58.296Z,16.60
2019-04-01T14:44:32.106Z,16.30
2019-04-01T14:47:04.875Z,16.50
2019-04-01T14:49:35.081Z,17.00
2019-04-01T14:52:09.447Z,17.50
2019-04-01T14:54:42.733Z,16.70
2019-04-01T14:57:16.018Z,16.10
2019-04-01T14:59:51.361Z,16.30
2019-04-01T15:02:25.474Z,16.70
2019-04-01T15:05:04.754Z,16.40
2019-04-01T15:07:33.047Z,16.20
2019-04-01T15:10:08.494Z,16.40
2019-04-01T15:12:39.618Z,16.60
2019-04-01T15:15:15.587Z,17.00
2019-04-01T15:17:47.277Z,17.30
2019-04-01T15:20:19.179Z,17.10
2019-04-01T15:22:50.174Z,16.10
2019-04-01T15:25:21.201Z,15.40
2019-04-01T15:30:23.789Z,14.90
2019-04-01T15:32:56.082Z,14.90
2019-04-01T15:35:27.070Z,14.70
2019-04-01T15:38:00.660Z,15.00
2019-04-01T15:40:34.026Z,15.30
2019-04-01T15:43:05.550Z,15.10
2019-04-01T15:45:36.912Z,14.90
2019-04-01T15:48:08.080Z,14.60
2019-04-01T15:50:38.417Z,14.60
2019-04-01T15:53:09.918Z,14.50
2019-04-01T15:55:42.357Z,14.60
2019-04-01T15:58:16.104Z,14.00
2019-04-01T16:00:48.590Z,13.30
2019-04-01T16:03:19.676Z,13.20
2019-04-01T16:05:55.096Z,13.10
2019-04-01T16:08:26.311Z,12.90
2019-04-01T16:10:56.545Z,12.60
2019-04-01T16:13:25.697Z,12.40
2019-04-01T16:15:56.644Z,12.20
2019-04-01T16:18:30.990Z,12.10
2019-04-01T16:21:05.953Z,12.10
2019-04-01T16:23:36.850Z,12.00
2019-04-01T16:26:10.414Z,11.90
2019-04-01T16:28:40.436Z,11.80
2019-04-01T16:31:13.644Z,11.60
2019-04-01T16:33:44.612Z,11.30
2019-04-01T16:36:14.528Z,11.00
2019-04-01T16:38:44.360Z,10.80
2019-04-01T16:41:16.517Z,10.60
2019-04-01T16:43:49.338Z,10.50
2019-04-01T16:46:20.480Z,10.40
2019-04-01T16:48:55.127Z,10.30
2019-04-01T16:51:26.507Z,10.20
2019-04-01T16:53:58.926Z,10.10
2019-04-01T16:56:31.984Z,10.00
2019-04-01T16:59:04.490Z,9.90
2019-04-01T17:01:36.618Z,9.80
2019-04-01T17:04:06.178Z,9.70
2019-04-01T17:06:37.290Z,9.60
2019-04-01T17:09:10.999Z,9.50
2019-04-01T17:11:41.039Z,9.40
2019-04-01T17:14:12.110Z,9.30
2019-04-01T17:16:43.751Z,9.10
2019-04-01T17:19:15.876Z,9.00
2019-04-01T17:21:47.325Z,8.90
2019-04-01T17:24:17.376Z,8.80
2019-04-01T17:27:10.525Z,8.70
2019-04-01T17:29:41.421Z,8.70
2019-04-01T17:32:13.226Z,8.50
2019-04-01T17:34:47.135Z,8.50
2019-04-01T17:37:21.192Z,8.40
2019-04-01T17:39:53.265Z,8.40
2019-04-01T17:42:24.244Z,8.20
2019-04-01T17:44:59.549Z,8.20
2019-04-01T17:47:29.548Z,8.10
2019-04-01T17:50:00.255Z,8.00
2019-04-01T17:52:31.469Z,7.90
2019-04-01T17:55:03.801Z,7.90
2019-04-01T17:57:37.785Z,7.80
2019-04-01T18:00:13.116Z,7.80
2019-04-01T18:02:44.378Z,7.80
2019-04-01T18:05:19.346Z,7.70
2019-04-01T18:07:51.785Z,7.70
2019-04-01T18:10:22.826Z,7.60
2019-04-01T18:12:55.219Z,7.50
2019-04-01T18:15:26.452Z,7.50
2019-04-01T18:17:58.030Z,7.40
2019-04-01T18:20:29.818Z,7.30
2019-04-01T18:22:59.011Z,7.30
2019-04-01T18:25:31.061Z,7.30
2019-04-01T18:28:02.064Z,7.20
2019-04-01T18:30:35.033Z,7.10
2019-04-01T18:33:06.016Z,7.10
2019-04-01T18:35:38.530Z,7.00
2019-04-01T18:38:10.046Z,7.00
2019-04-01T18:40:40.895Z,7.00
2019-04-01T18:43:12.002Z,6.90
2019-04-01T18:45:43.465Z,6.80
2019-04-01T18:48:14.562Z,6.70
2019-04-01T18:50:46.648Z,6.70
2019-04-01T18:53:20.773Z,6.60
2019-04-01T18:55:53.040Z,6.60
2019-04-01T18:58:24.300Z,6.50
2019-04-01T19:00:56.408Z,6.50
2019-04-01T19:03:26.357Z,6.40
2019-04-01T19:06:01.357Z,6.40
2019-04-01T19:08:51.600Z,6.40
2019-04-01T19:11:24.520Z,6.30
2019-04-01T19:13:55.350Z,6.20
2019-04-01T19:16:27.728Z,6.20
2019-04-01T19:18:58.584Z,6.10
2019-04-01T19:21:29.857Z,6.10
2019-04-01T19:24:00.806Z,6.10
2019-04-01T19:26:33.214Z,6.00
2019-04-01T19:29:04.322Z,5.90
2019-04-01T19:31:34.153Z,5.90
2019-04-01T19:34:07.129Z,5.80
2019-04-01T19:36:37.110Z,5.70
2019-04-01T19:39:10.037Z,5.70
2019-04-01T19:41:41.808Z,5.70
2019-04-01T19:44:15.027Z,5.70
2019-04-01T19:49:35.978Z,5.60
2019-04-01T19:52:09.870Z,5.70
2019-04-01T19:54:41.290Z,5.70
2019-04-01T19:57:14.759Z,5.70
2019-04-01T19:59:44.891Z,5.70
2019-04-01T20:02:16.803Z,5.70
2019-04-01T20:07:27.417Z,5.60
2019-04-01T20:10:01.123Z,5.50
2019-04-01T20:12:33.434Z,5.60
2019-04-01T20:15:09.524Z,5.50
2019-04-01T20:20:18.778Z,5.50
2019-04-01T20:22:49.651Z,5.50
2019-04-01T20:25:20.801Z,5.40
2019-04-01T20:27:53.607Z,5.40
2019-04-01T20:30:26.879Z,5.30
2019-04-01T20:32:57.827Z,5.30
2019-04-01T20:35:28.359Z,5.30
2019-04-01T20:38:02.360Z,5.30
2019-04-01T20:40:36.424Z,5.30
2019-04-01T20:43:08.894Z,5.30
2019-04-01T20:45:38.991Z,5.30
2019-04-01T20:48:11.893Z,5.20
2019-04-01T20:50:41.794Z,5.10
2019-04-01T20:53:19.021Z,5.10
2019-04-01T20:55:50.841Z,5.00
2019-04-01T20:58:23.751Z,5.10
2019-04-01T21:00:55.590Z,5.00
2019-04-01T21:03:26.946Z,5.00
2019-04-01T21:06:17.527Z,4.90
2019-04-01T21:08:47.406Z,4.90
2019-04-01T21:11:17.975Z,4.90
2019-04-01T21:13:47.402Z,4.80
2019-04-01T21:16:18.606Z,4.80
2019-04-01T21:18:48.624Z,4.70
2019-04-01T21:21:19.607Z,4.70
2019-04-01T21:23:50.668Z,4.70
2019-04-01T21:26:20.508Z,4.70
2019-04-01T21:29:09.569Z,4.60
2019-04-01T21:31:39.614Z,4.60
2019-04-01T21:34:11.210Z,4.50
2019-04-01T21:36:41.200Z,4.50
2019-04-01T21:39:13.620Z,4.50
2019-04-01T21:41:43.635Z,4.50
2019-04-01T21:44:18.185Z,4.40
2019-04-01T21:46:51.328Z,4.40
2019-04-01T21:49:22.805Z,4.30
2019-04-01T21:51:53.754Z,4.30
2019-04-01T21:54:24.799Z,4.30
2019-04-01T21:56:57.463Z,4.30
2019-04-01T21:59:29.603Z,4.20
2019-04-01T22:02:02.159Z,4.20
2019-04-01T22:04:32.851Z,4.20
2019-04-01T22:07:03.517Z,4.10
2019-04-01T22:09:36.315Z,4.10
2019-04-01T22:12:07.654Z,4.00
2019-04-01T22:14:37.628Z,4.00
2019-04-01T22:17:08.673Z,3.90
2019-04-01T22:19:42.428Z,3.90
2019-04-01T22:22:13.509Z,3.90
2019-04-01T22:24:43.567Z,3.80
2019-04-01T22:27:15.238Z,3.80
2019-04-01T22:29:51.299Z,3.80
2019-04-01T22:32:24.443Z,3.80
2019-04-01T22:34:58.937Z,3.70
2019-04-01T22:37:28.925Z,3.60
2019-04-01T22:40:00.252Z,3.60
2019-04-01T22:42:32.313Z,3.70
2019-04-01T22:45:03.263Z,3.60
2019-04-01T22:47:36.286Z,3.60
2019-04-01T22:50:07.766Z,3.60
2019-04-01T22:52:37.708Z,3.50
2019-04-01T22:55:10.270Z,3.50
2019-04-01T22:58:01.124Z,3.40
2019-04-01T23:00:32.001Z,3.30
2019-04-01T23:03:04.484Z,3.30
2019-04-01T23:05:35.186Z,3.30
2019-04-01T23:08:07.411Z,3.30
2019-04-01T23:10:38.539Z,3.20
2019-04-01T23:13:08.593Z,3.20
2019-04-01T23:15:40.960Z,3.20
2019-04-01T23:18:13.547Z,3.20
2019-04-01T23:20:44.533Z,3.10
2019-04-01T23:23:16.958Z,3.10
2019-04-01T23:25:48.080Z,3.10
2019-04-01T23:28:19.018Z,3.10
2019-04-01T23:30:49.070Z,3.10
2019-04-01T23:33:22.955Z,3.10
2019-04-01T23:35:54.428Z,3.10
2019-04-01T23:38:27.548Z,3.00
2019-04-01T23:41:01.231Z,2.90
2019-04-01T23:43:30.968Z,2.90
2019-04-01T23:46:00.969Z,2.90
2019-04-01T23:48:30.302Z,2.80
2019-04-01T23:51:02.366Z,2.70
2019-04-01T23:56:04.971Z,2.60
2019-04-01T23:58:35.188Z,2.60
